ADDS TAF Data INFO
IDs: Format: Raw Decoded Include METARs

Data at: 2115 UTC 21 Nov 2017

KDRO 212053Z AUTO 23005KT 10SM CLR 13/M06 A3027 RMK AO2 SLP248 T01281056 56010

KDRO 211736Z 2118/2218 11005KT P6SM FEW140 FEW250
  FM211900 26008KT P6SM FEW140 FEW250
  FM220300 03005KT P6SM FEW140 FEW250
  FM221500 09004KT P6SM SKC